Time;durP1;ratioP1;P1;durP2;ratioP2;P2;SDS_P1;SDS_P2;PMS_P1;PMS_P2;Temp;Humidity;BMP_temperature;BMP_pressure;BME280_temperature;BME280_humidity;BME280_pressure;Samples;Min_cycle;Max_cycle;Signal;HPM_P1;HPM_P2
2022/06/04 00:02:02;;;;;;;;;;;19.20;90.80;;;;;;4330098;33;43913;-75
2022/06/04 00:04:30;;;;;;;;;;;19.20;90.90;;;;;;4317574;33;44534;-75
2022/06/04 00:06:57;;;;;;;;;;;19.20;90.90;;;;;;4333850;33;20005;-77
2022/06/04 00:09:28;;;;;;;;;;;19.20;91.00;;;;;;4319372;33;44349;-75
2022/06/04 00:17:27;;;;;;;;;;;19.20;91.10;;;;;;4331728;33;42870;-76
2022/06/04 00:19:54;;;;;;;;;;;19.10;91.10;;;;;;4319735;33;43875;-76
2022/06/04 00:22:21;;;;;;;;;;;19.00;91.10;;;;;;4319303;33;44036;-75
2022/06/04 00:24:48;;;;;;;;;;;19.10;91.10;;;;;;4332358;33;43600;-75
2022/06/04 00:27:21;;;;;;;;;;;19.10;91.20;;;;;;4320082;33;43373;-76
2022/06/04 00:29:51;;;;;;;;;;;19.10;91.20;;;;;;4332242;33;43940;-76
2022/06/04 00:32:18;;;;;;;;;;;19.00;91.10;;;;;;4332324;33;43148;-76
2022/06/04 00:34:48;;;;;;;;;;;19.00;91.10;;;;;;4319452;33;43454;-76
2022/06/04 00:37:18;;;;;;;;;;;19.00;91.20;;;;;;4333480;33;20044;-75
2022/06/04 00:39:46;;;;;;;;;;;19.00;91.60;;;;;;4319345;33;42851;-75
2022/06/04 00:42:17;;;;;;;;;;;19.00;91.20;;;;;;4332085;33;42995;-75
2022/06/04 00:45:02;;;;;;;;;;;19.00;91.20;;;;;;4332505;33;45604;-76
2022/06/04 00:47:30;;;;;;;;;;;19.00;91.30;;;;;;4319092;33;43303;-76
2022/06/04 00:49:59;;;;;;;;;;;19.00;91.30;;;;;;4319557;33;45987;-76
2022/06/04 00:52:27;;;;;;;;;;;19.00;91.70;;;;;;4319003;33;45060;-75
2022/06/04 00:54:56;;;;;;;;;;;18.90;91.30;;;;;;4319131;33;44145;-76
2022/06/04 00:57:43;;;;;;;;;;;18.90;91.30;;;;;;4319125;33;44675;-76
2022/06/04 01:00:14;;;;;;;;;;;18.90;91.40;;;;;;4332336;33;43196;-75
2022/06/04 01:03:01;;;;;;;;;;;18.90;91.40;;;;;;4318954;33;44370;-76
2022/06/04 01:05:31;;;;;;;;;;;18.90;91.80;;;;;;4318756;33;43170;-75
2022/06/04 01:07:58;;;;;;;;;;;18.90;91.40;;;;;;4319498;33;20009;-75
2022/06/04 01:10:43;;;;;;;;;;;18.90;91.40;;;;;;4331616;33;42537;-76
2022/06/04 01:13:19;;;;;;;;;;;18.90;91.50;;;;;;4332008;33;45602;-74
2022/06/04 01:15:49;;;;;;;;;;;18.90;91.50;;;;;;4318380;33;43541;-76
2022/06/04 01:18:16;;;;;;;;;;;18.80;91.50;;;;;;4318269;33;42944;-76
2022/06/04 01:20:55;;;;;;;;;;;18.80;91.50;;;;;;4318405;33;42914;-74
2022/06/04 01:23:43;;;;;;;;;;;18.80;91.60;;;;;;4318771;33;42944;-75
2022/06/04 01:26:13;;;;;;;;;;;18.80;91.60;;;;;;4331870;33;45984;-74
2022/06/04 01:28:47;;;;;;;;;;;18.80;91.60;;;;;;4318165;33;44153;-75
2022/06/04 01:31:17;;;;;;;;;;;18.70;91.70;;;;;;4318434;33;43490;-74
2022/06/04 01:33:49;;;;;;;;;;;18.70;91.70;;;;;;4331850;33;43021;-75
2022/06/04 01:36:23;;;;;;;;;;;18.70;91.70;;;;;;4318821;33;43496;-75
2022/06/04 01:38:57;;;;;;;;;;;18.70;91.80;;;;;;4318758;33;43833;-75
2022/06/04 01:41:30;;;;;;;;;;;18.60;91.80;;;;;;4318839;33;45252;-74
2022/06/04 01:44:00;;;;;;;;;;;18.70;91.90;;;;;;4331750;33;44071;-74
2022/06/04 01:46:42;;;;;;;;;;;18.60;91.90;;;;;;4331462;33;43463;-75
2022/06/04 01:49:21;;;;;;;;;;;18.70;92.00;;;;;;4330960;33;45586;-74
2022/06/04 01:51:50;;;;;;;;;;;18.70;92.10;;;;;;4318566;33;43263;-75
2022/06/04 01:54:23;;;;;;;;;;;18.60;92.10;;;;;;4331584;33;44927;-75
2022/06/04 01:56:53;;;;;;;;;;;18.70;92.20;;;;;;4318392;33;45824;-75
2022/06/04 01:59:32;;;;;;;;;;;18.60;92.20;;;;;;4331074;33;43781;-75
2022/06/04 02:02:03;;;;;;;;;;;18.60;92.10;;;;;;4331210;33;43870;-75
2022/06/04 02:04:34;;;;;;;;;;;18.60;92.00;;;;;;4331900;33;43527;-75
2022/06/04 02:09:53;;;;;;;;;;;18.60;92.00;;;;;;4331997;33;20012;-75
2022/06/04 02:12:21;;;;;;;;;;;18.60;92.00;;;;;;4331177;33;45704;-75
2022/06/04 02:14:50;;;;;;;;;;;18.60;92.10;;;;;;4330781;33;42585;-75
2022/06/04 02:17:20;;;;;;;;;;;18.50;92.10;;;;;;4330856;33;45072;-75
2022/06/04 02:19:52;;;;;;;;;;;18.50;92.10;;;;;;4318759;33;35373;-74
2022/06/04 02:22:22;;;;;;;;;;;18.50;92.20;;;;;;4317441;33;46087;-75
2022/06/04 02:24:54;;;;;;;;;;;18.40;92.20;;;;;;4317816;33;43727;-75
2022/06/04 02:27:21;;;;;;;;;;;18.40;92.20;;;;;;4318007;33;43843;-75
2022/06/04 02:29:48;;;;;;;;;;;18.40;92.20;;;;;;4331333;33;43453;-75
2022/06/04 02:32:34;;;;;;;;;;;18.30;92.20;;;;;;4330556;33;45360;-75
2022/06/04 02:35:14;;;;;;;;;;;18.30;92.20;;;;;;4317420;33;44070;-75
2022/06/04 02:37:59;;;;;;;;;;;18.30;92.10;;;;;;4330524;33;42659;-75
2022/06/04 02:40:26;;;;;;;;;;;18.20;92.10;;;;;;4318853;33;20383;-75
2022/06/04 02:42:56;;;;;;;;;;;18.20;92.00;;;;;;4330735;33;43701;-75
2022/06/04 02:45:32;;;;;;;;;;;18.20;92.10;;;;;;4330822;33;44005;-74
2022/06/04 02:48:09;;;;;;;;;;;18.10;92.00;;;;;;4330894;33;43637;-75
2022/06/04 02:50:41;;;;;;;;;;;18.10;92.00;;;;;;4330783;33;41781;-75
2022/06/04 02:53:10;;;;;;;;;;;18.10;92.10;;;;;;4317838;33;44022;-75
2022/06/04 02:55:41;;;;;;;;;;;18.00;92.10;;;;;;4330495;33;42815;-74
2022/06/04 02:58:11;;;;;;;;;;;18.00;92.20;;;;;;4330884;33;43883;-74
2022/06/04 03:00:46;;;;;;;;;;;18.00;92.10;;;;;;4318373;33;44017;-74
2022/06/04 03:03:14;;;;;;;;;;;18.00;92.10;;;;;;4314608;33;43895;-74
2022/06/04 03:05:58;;;;;;;;;;;17.90;92.10;;;;;;4314559;33;42925;-75
2022/06/04 03:08:26;;;;;;;;;;;17.90;92.10;;;;;;4314990;33;45984;-75
2022/06/04 03:10:53;;;;;;;;;;;17.80;92.10;;;;;;4315643;33;20017;-74
2022/06/04 03:13:20;;;;;;;;;;;17.80;92.40;;;;;;4315566;33;43660;-75
2022/06/04 03:15:48;;;;;;;;;;;17.70;92.10;;;;;;4314659;33;43916;-73
2022/06/04 03:18:15;;;;;;;;;;;17.70;92.20;;;;;;4314379;33;44797;-74
2022/06/04 03:20:42;;;;;;;;;;;17.60;92.20;;;;;;4314410;33;42935;-74
2022/06/04 03:23:14;;;;;;;;;;;17.60;92.20;;;;;;4316049;33;44053;-74
2022/06/04 03:25:41;;;;;;;;;;;17.60;92.20;;;;;;4315844;33;43856;-73
2022/06/04 03:28:09;;;;;;;;;;;17.60;92.20;;;;;;4314968;33;43506;-73
2022/06/04 03:30:38;;;;;;;;;;;17.60;92.30;;;;;;4315349;33;42868;-73
2022/06/04 03:33:06;;;;;;;;;;;17.60;92.20;;;;;;4315946;33;43541;-73
2022/06/04 03:35:33;;;;;;;;;;;17.60;92.30;;;;;;4314814;33;44027;-73
2022/06/04 03:38:01;;;;;;;;;;;17.50;92.20;;;;;;4314786;33;43471;-74
2022/06/04 03:40:28;;;;;;;;;;;17.50;92.20;;;;;;4317165;33;42695;-73
2022/06/04 03:42:55;;;;;;;;;;;17.50;92.20;;;;;;4319560;33;20040;-73
2022/06/04 03:45:24;;;;;;;;;;;17.50;92.30;;;;;;4317621;33;45094;-73
2022/06/04 03:47:52;;;;;;;;;;;17.40;92.20;;;;;;4318775;33;44235;-73
2022/06/04 03:50:19;;;;;;;;;;;17.40;92.30;;;;;;4317427;33;43766;-73
2022/06/04 03:52:47;;;;;;;;;;;17.40;92.40;;;;;;4317128;33;43220;-73
2022/06/04 03:55:20;;;;;;;;;;;17.40;92.40;;;;;;4317113;33;42504;-73
2022/06/04 03:57:48;;;;;;;;;;;17.40;92.50;;;;;;4317579;33;42835;-73
2022/06/04 04:00:21;;;;;;;;;;;17.30;92.60;;;;;;4318114;33;43305;-73
2022/06/04 04:02:50;;;;;;;;;;;17.30;92.60;;;;;;4326915;33;43736;-73
2022/06/04 04:05:19;;;;;;;;;;;17.30;92.60;;;;;;4333092;33;43036;-73
2022/06/04 04:07:47;;;;;;;;;;;17.30;92.70;;;;;;4332656;33;43238;-73
2022/06/04 04:10:14;;;;;;;;;;;17.20;92.70;;;;;;4332634;33;43732;-73
2022/06/04 04:12:42;;;;;;;;;;;17.20;92.80;;;;;;4333023;33;43490;-73
2022/06/04 04:15:12;;;;;;;;;;;17.20;92.80;;;;;;4332987;33;43244;-74
2022/06/04 04:17:42;;;;;;;;;;;17.10;92.80;;;;;;4333013;33;42687;-73
2022/06/04 04:20:14;;;;;;;;;;;17.10;92.80;;;;;;4332715;33;43600;-74
2022/06/04 04:22:42;;;;;;;;;;;17.10;92.90;;;;;;4320025;33;43229;-74
2022/06/04 04:25:10;;;;;;;;;;;17.10;92.90;;;;;;4332410;33;44865;-73
2022/06/04 04:27:39;;;;;;;;;;;17.20;92.90;;;;;;4332323;33;43552;-73
2022/06/04 04:30:08;;;;;;;;;;;17.20;92.90;;;;;;4332500;33;42605;-73
2022/06/04 04:32:35;;;;;;;;;;;17.20;92.90;;;;;;4332201;33;42550;-73
2022/06/04 04:35:04;;;;;;;;;;;17.20;92.80;;;;;;4319059;33;42518;-73
2022/06/04 04:37:31;;;;;;;;;;;17.10;92.90;;;;;;4332782;33;44900;-73
2022/06/04 04:39:58;;;;;;;;;;;17.10;92.90;;;;;;4319520;33;46013;-73
2022/06/04 04:42:25;;;;;;;;;;;17.10;92.90;;;;;;4332050;33;43107;-73
2022/06/04 04:44:56;;;;;;;;;;;17.10;93.00;;;;;;4332080;33;45230;-76
2022/06/04 04:47:23;;;;;;;;;;;17.10;93.00;;;;;;4332564;33;43903;-73
2022/06/04 04:49:51;;;;;;;;;;;17.00;93.00;;;;;;4331904;33;44180;-75
2022/06/04 04:52:18;;;;;;;;;;;17.00;93.10;;;;;;4318999;33;42868;-73
2022/06/04 04:54:45;;;;;;;;;;;17.00;93.10;;;;;;4331943;33;44212;-73
2022/06/04 04:57:15;;;;;;;;;;;17.00;93.10;;;;;;4332240;33;45002;-74
2022/06/04 04:59:45;;;;;;;;;;;17.00;93.20;;;;;;4319190;33;43316;-74
2022/06/04 05:02:18;;;;;;;;;;;16.90;93.20;;;;;;4318780;33;43862;-75
2022/06/04 05:04:45;;;;;;;;;;;16.90;93.30;;;;;;4332013;33;44070;-75
2022/06/04 05:07:17;;;;;;;;;;;16.90;93.40;;;;;;4319097;33;44118;-75
2022/06/04 05:09:50;;;;;;;;;;;16.90;93.40;;;;;;4319029;33;43754;-74
2022/06/04 05:12:19;;;;;;;;;;;16.90;93.50;;;;;;4332162;33;43898;-75
2022/06/04 05:14:52;;;;;;;;;;;16.90;93.50;;;;;;4332986;33;20009;-75
2022/06/04 05:17:22;;;;;;;;;;;16.80;93.60;;;;;;4331830;33;44104;-75
2022/06/04 05:19:55;;;;;;;;;;;16.90;93.50;;;;;;4319225;33;44459;-75
2022/06/04 05:22:27;;;;;;;;;;;16.80;93.60;;;;;;4318774;33;45308;-75
2022/06/04 05:25:03;;;;;;;;;;;16.80;93.70;;;;;;4332410;33;43926;-75
2022/06/04 05:27:30;;;;;;;;;;;16.80;93.70;;;;;;4318452;33;44257;-75
2022/06/04 05:30:06;;;;;;;;;;;16.80;93.80;;;;;;4331854;33;45869;-74
2022/06/04 05:32:33;;;;;;;;;;;16.80;93.80;;;;;;4318317;33;42945;-74
2022/06/04 05:35:08;;;;;;;;;;;16.80;93.80;;;;;;4318168;33;43682;-75
2022/06/04 05:37:41;;;;;;;;;;;16.80;93.70;;;;;;4318304;33;43078;-74
2022/06/04 05:40:11;;;;;;;;;;;16.80;93.80;;;;;;4331344;33;42842;-74
2022/06/04 05:42:38;;;;;;;;;;;16.80;93.90;;;;;;4331342;33;45068;-75
2022/06/04 05:45:11;;;;;;;;;;;16.80;94.00;;;;;;4332250;33;19998;-74
2022/06/04 05:47:41;;;;;;;;;;;16.70;94.00;;;;;;4318548;33;44133;-75
2022/06/04 05:50:14;;;;;;;;;;;16.70;94.00;;;;;;4317989;33;43390;-75
2022/06/04 05:52:41;;;;;;;;;;;16.70;94.10;;;;;;4331909;33;44312;-75
2022/06/04 05:55:14;;;;;;;;;;;16.70;94.10;;;;;;4318443;33;44488;-74
2022/06/04 05:57:44;;;;;;;;;;;16.70;94.10;;;;;;4331107;33;43795;-74
2022/06/04 06:00:14;;;;;;;;;;;16.70;94.10;;;;;;4331343;33;43777;-75
2022/06/04 06:02:47;;;;;;;;;;;16.70;94.10;;;;;;4314677;33;44069;-75
2022/06/04 06:05:21;;;;;;;;;;;16.70;94.10;;;;;;4315271;33;45977;-74
2022/06/04 06:07:48;;;;;;;;;;;16.70;94.20;;;;;;4316485;33;44164;-76
2022/06/04 06:10:18;;;;;;;;;;;16.70;94.20;;;;;;4316223;33;44204;-76
2022/06/04 06:12:48;;;;;;;;;;;16.70;94.20;;;;;;4315574;33;43846;-74
2022/06/04 06:15:18;;;;;;;;;;;16.60;94.20;;;;;;4317473;33;20037;-74
2022/06/04 06:17:46;;;;;;;;;;;16.60;94.40;;;;;;4315720;33;42514;-74
2022/06/04 06:20:17;;;;;;;;;;;16.60;94.30;;;;;;4316462;33;42821;-74
2022/06/04 06:22:44;;;;;;;;;;;16.50;94.30;;;;;;4316661;33;43465;-74
2022/06/04 06:25:16;;;;;;;;;;;16.60;94.40;;;;;;4316562;33;43197;-75
2022/06/04 06:27:49;;;;;;;;;;;16.60;94.50;;;;;;4315047;33;42919;-74
2022/06/04 06:30:20;;;;;;;;;;;16.60;94.40;;;;;;4315084;33;43652;-74
2022/06/04 06:32:50;;;;;;;;;;;16.60;94.50;;;;;;4315417;33;44918;-74
2022/06/04 06:35:19;;;;;;;;;;;16.60;94.60;;;;;;4314860;33;43806;-74
2022/06/04 06:37:53;;;;;;;;;;;16.60;94.50;;;;;;4316517;33;43533;-74
2022/06/04 06:40:26;;;;;;;;;;;16.60;94.60;;;;;;4316763;33;43086;-75
2022/06/04 06:42:59;;;;;;;;;;;16.60;94.60;;;;;;4315138;33;43270;-74
2022/06/04 06:45:29;;;;;;;;;;;16.60;94.60;;;;;;4315532;33;20465;-75
2022/06/04 06:48:04;;;;;;;;;;;16.60;94.60;;;;;;4315265;33;42029;-74
2022/06/04 06:50:40;;;;;;;;;;;16.60;94.70;;;;;;4316239;33;43898;-75
2022/06/04 06:53:13;;;;;;;;;;;16.60;94.70;;;;;;4314793;33;43422;-74
2022/06/04 06:55:43;;;;;;;;;;;16.60;94.90;;;;;;4315094;33;42990;-75
2022/06/04 06:58:12;;;;;;;;;;;16.60;94.80;;;;;;4315131;33;45988;-74
2022/06/04 07:00:42;;;;;;;;;;;16.60;94.80;;;;;;4316186;33;42675;-74
2022/06/04 07:03:12;;;;;;;;;;;16.60;94.80;;;;;;4314555;33;45447;-74
2022/06/04 07:05:42;;;;;;;;;;;16.60;94.80;;;;;;4314676;33;44040;-75
2022/06/04 07:08:20;;;;;;;;;;;16.70;95.00;;;;;;4315156;33;43033;-74
2022/06/04 07:10:52;;;;;;;;;;;16.70;94.90;;;;;;4316009;33;43788;-75
2022/06/04 07:13:25;;;;;;;;;;;16.70;94.80;;;;;;4314952;33;45722;-75
2022/06/04 07:15:52;;;;;;;;;;;16.70;94.90;;;;;;4316688;33;20065;-74
2022/06/04 07:18:26;;;;;;;;;;;16.70;95.00;;;;;;4316178;33;44012;-75
2022/06/04 07:20:56;;;;;;;;;;;16.70;95.00;;;;;;4315112;33;43888;-74
2022/06/04 07:23:23;;;;;;;;;;;16.70;94.90;;;;;;4315983;33;43223;-74
2022/06/04 07:25:51;;;;;;;;;;;16.70;95.10;;;;;;4315868;33;44909;-75
2022/06/04 07:28:23;;;;;;;;;;;16.70;95.00;;;;;;4314806;33;45002;-75
2022/06/04 07:30:56;;;;;;;;;;;16.70;95.10;;;;;;4314873;33;44522;-75
2022/06/04 07:33:27;;;;;;;;;;;16.70;95.10;;;;;;4314900;33;45768;-75
2022/06/04 07:36:02;;;;;;;;;;;16.70;95.20;;;;;;4315937;33;45816;-75
2022/06/04 07:38:32;;;;;;;;;;;16.70;95.40;;;;;;4315860;33;44867;-75
2022/06/04 07:41:10;;;;;;;;;;;16.80;95.40;;;;;;4314943;33;44237;-75
2022/06/04 07:43:40;;;;;;;;;;;16.80;95.30;;;;;;4314813;33;45209;-75
2022/06/04 07:46:07;;;;;;;;;;;16.90;95.30;;;;;;4315347;33;20035;-75
2022/06/04 07:48:34;;;;;;;;;;;16.90;95.30;;;;;;4314646;33;43977;-75
2022/06/04 07:51:02;;;;;;;;;;;16.90;95.30;;;;;;4315697;33;43847;-75
2022/06/04 07:53:32;;;;;;;;;;;16.90;95.20;;;;;;4314654;33;45768;-75
2022/06/04 07:56:07;;;;;;;;;;;17.00;95.20;;;;;;4315262;33;44237;-75
2022/06/04 07:58:40;;;;;;;;;;;17.00;95.20;;;;;;4314805;33;43474;-75
2022/06/04 08:01:19;;;;;;;;;;;17.00;95.20;;;;;;4314875;33;43438;-75
2022/06/04 08:03:49;;;;;;;;;;;17.00;95.30;;;;;;4314500;33;43473;-75
2022/06/04 08:06:22;;;;;;;;;;;17.00;95.30;;;;;;4314446;33;44304;-75
2022/06/04 08:08:54;;;;;;;;;;;17.10;95.40;;;;;;4314743;33;45947;-75
2022/06/04 08:11:31;;;;;;;;;;;17.10;95.20;;;;;;4315602;33;42834;-74
2022/06/04 08:14:06;;;;;;;;;;;17.10;95.20;;;;;;4314621;33;45005;-75
2022/06/04 08:16:38;;;;;;;;;;;17.10;95.50;;;;;;4314941;33;20009;-76
2022/06/04 08:19:08;;;;;;;;;;;17.10;95.40;;;;;;4315188;33;42998;-75
2022/06/04 08:21:39;;;;;;;;;;;17.10;95.30;;;;;;4314279;33;43727;-75
2022/06/04 08:24:13;;;;;;;;;;;17.20;95.30;;;;;;4314585;33;44261;-75
2022/06/04 08:26:47;;;;;;;;;;;17.10;95.40;;;;;;4316195;33;43482;-75
2022/06/04 08:29:19;;;;;;;;;;;17.20;95.50;;;;;;4317871;33;42804;-74
2022/06/04 08:31:47;;;;;;;;;;;17.30;95.50;;;;;;4317054;33;43015;-76
2022/06/04 08:34:16;;;;;;;;;;;17.30;95.40;;;;;;4317232;33;43317;-74
2022/06/04 08:36:50;;;;;;;;;;;17.30;95.40;;;;;;4316578;33;43930;-75
2022/06/04 08:39:26;;;;;;;;;;;17.30;95.60;;;;;;4316964;33;43327;-75
2022/06/04 08:42:05;;;;;;;;;;;17.40;95.50;;;;;;4316739;33;43005;-75
2022/06/04 08:44:36;;;;;;;;;;;17.40;95.50;;;;;;4316533;33;43275;-74
2022/06/04 08:47:13;;;;;;;;;;;17.40;95.50;;;;;;4317840;33;19997;-75
2022/06/04 08:49:56;;;;;;;;;;;17.50;95.60;;;;;;4316747;33;43258;-74
2022/06/04 08:52:38;;;;;;;;;;;17.50;95.60;;;;;;4317099;33;43162;-74
2022/06/04 08:58:14;;;;;;;;;;;17.60;95.70;;;;;;4317753;33;42755;-74
2022/06/04 09:00:46;;;;;;;;;;;17.60;95.70;;;;;;4316858;33;44342;-75
2022/06/04 09:03:22;;;;;;;;;;;17.70;95.70;;;;;;4316402;33;43254;-75
2022/06/04 09:05:59;;;;;;;;;;;17.70;95.80;;;;;;4317778;33;44231;-76
2022/06/04 09:08:41;;;;;;;;;;;17.80;95.60;;;;;;4317190;33;42871;-75
2022/06/04 09:11:16;;;;;;;;;;;17.80;95.60;;;;;;4317150;33;44725;-76
2022/06/04 09:13:57;;;;;;;;;;;17.90;95.60;;;;;;4317764;33;44213;-76
2022/06/04 09:16:27;;;;;;;;;;;17.90;95.60;;;;;;4317539;33;43772;-76
2022/06/04 09:19:03;;;;;;;;;;;17.90;95.60;;;;;;4316011;33;44240;-75
2022/06/04 09:21:35;;;;;;;;;;;18.00;95.60;;;;;;4316719;33;44209;-76
2022/06/04 09:24:04;;;;;;;;;;;18.00;95.70;;;;;;4316126;33;42921;-75
2022/06/04 09:26:41;;;;;;;;;;;18.00;95.50;;;;;;4315900;33;42083;-75
2022/06/04 09:29:28;;;;;;;;;;;18.10;95.60;;;;;;4317163;33;44183;-76
2022/06/04 09:32:10;;;;;;;;;;;18.10;95.80;;;;;;4279783;33;41984;-75
2022/06/04 09:34:56;;;;;;;;;;;18.10;95.80;;;;;;4317218;33;44255;-76
2022/06/04 09:37:23;;;;;;;;;;;18.10;95.70;;;;;;4316636;33;45310;-75
2022/06/04 09:40:04;;;;;;;;;;;18.20;95.60;;;;;;4316820;33;44195;-76
2022/06/04 09:42:32;;;;;;;;;;;18.20;95.70;;;;;;4317283;33;44196;-76
2022/06/04 09:45:05;;;;;;;;;;;18.20;95.70;;;;;;4316702;33;42214;-75
2022/06/04 09:47:49;;;;;;;;;;;18.30;96.00;;;;;;4316081;33;44929;-76
2022/06/04 09:50:22;;;;;;;;;;;18.40;95.90;;;;;;4317294;33;20415;-76
2022/06/04 09:52:58;;;;;;;;;;;18.40;95.80;;;;;;4316021;33;42847;-75
2022/06/04 09:55:25;;;;;;;;;;;18.40;95.70;;;;;;4317018;33;43924;-75
2022/06/04 09:58:02;;;;;;;;;;;18.40;96.10;;;;;;4317109;33;43895;-75
2022/06/04 10:00:39;;;;;;;;;;;18.50;96.20;;;;;;4315933;33;44463;-76
2022/06/04 10:03:19;;;;;;;;;;;18.50;95.90;;;;;;4315456;33;44599;-75
2022/06/04 10:05:59;;;;;;;;;;;18.50;96.00;;;;;;4316656;33;43485;-77
2022/06/04 10:08:30;;;;;;;;;;;18.60;96.00;;;;;;4316834;33;44287;-76
2022/06/04 10:11:10;;;;;;;;;;;18.60;96.00;;;;;;4315726;33;42937;-75
2022/06/04 10:13:46;;;;;;;;;;;18.60;96.20;;;;;;4315908;33;42891;-76
2022/06/04 10:16:21;;;;;;;;;;;18.60;96.20;;;;;;4316910;33;43887;-75
2022/06/04 10:19:12;;;;;;;;;;;18.70;96.10;;;;;;4315256;33;42097;-75
2022/06/04 10:21:41;;;;;;;;;;;18.70;96.10;;;;;;4309083;33;42910;-75
2022/06/04 10:24:22;;;;;;;;;;;18.70;96.10;;;;;;4316305;33;43854;-75
2022/06/04 10:27:08;;;;;;;;;;;18.80;96.10;;;;;;4314989;33;42642;-75
2022/06/04 10:29:50;;;;;;;;;;;18.80;96.40;;;;;;4316439;33;42960;-76
2022/06/04 10:32:25;;;;;;;;;;;18.80;96.20;;;;;;4314931;33;43884;-75
2022/06/04 10:35:19;;;;;;;;;;;18.80;96.10;;;;;;4316189;33;37060;-75
2022/06/04 10:37:53;;;;;;;;;;;18.90;96.20;;;;;;4315953;33;44106;-75
2022/06/04 10:40:20;;;;;;;;;;;18.90;96.30;;;;;;4315374;33;42578;-75
2022/06/04 10:42:57;;;;;;;;;;;18.90;96.30;;;;;;4316104;33;42818;-75
2022/06/04 10:45:29;;;;;;;;;;;18.90;96.60;;;;;;4315397;33;44196;-74
2022/06/04 10:48:02;;;;;;;;;;;19.00;96.30;;;;;;4316368;33;44597;-75
2022/06/04 10:53:52;;;;;;;;;;;19.00;96.30;;;;;;4301237;33;43317;-75
2022/06/04 10:56:33;;;;;;;;;;;19.10;96.40;;;;;;4315125;33;43890;-74
2022/06/04 10:59:08;;;;;;;;;;;19.10;96.30;;;;;;4316230;33;44066;-75
2022/06/04 11:01:39;;;;;;;;;;;19.10;96.20;;;;;;4317638;33;44293;-75
2022/06/04 11:04:21;;;;;;;;;;;19.10;96.30;;;;;;4330695;33;43497;-74
2022/06/04 11:06:59;;;;;;;;;;;19.10;96.60;;;;;;4317117;33;43474;-75
2022/06/04 11:09:39;;;;;;;;;;;19.20;96.50;;;;;;4330233;33;44126;-75
2022/06/04 11:12:24;;;;;;;;;;;19.20;96.70;;;;;;4330150;33;42798;-76
2022/06/04 11:14:53;;;;;;;;;;;19.20;96.50;;;;;;4317305;33;44858;-74
2022/06/04 11:17:52;;;;;;;;;;;19.30;96.50;;;;;;4330346;33;44225;-75
2022/06/04 11:20:24;;;;;;;;;;;19.30;96.40;;;;;;4268348;33;45938;-75
2022/06/04 11:22:59;;;;;;;;;;;19.30;96.20;;;;;;4316920;33;43766;-75
2022/06/04 11:25:29;;;;;;;;;;;19.30;96.50;;;;;;4330273;33;44191;-74
2022/06/04 11:28:02;;;;;;;;;;;19.40;96.40;;;;;;4330494;33;43612;-75
2022/06/04 11:30:32;;;;;;;;;;;19.30;96.50;;;;;;4316894;33;43661;-75
2022/06/04 11:33:16;;;;;;;;;;;19.40;96.60;;;;;;4316945;33;44188;-74
2022/06/04 11:35:56;;;;;;;;;;;19.40;96.40;;;;;;4330787;33;44167;-76
2022/06/04 11:38:29;;;;;;;;;;;19.50;96.50;;;;;;4317524;33;45858;-75
2022/06/04 11:40:56;;;;;;;;;;;19.50;96.70;;;;;;4316741;33;42487;-74
2022/06/04 11:43:42;;;;;;;;;;;19.60;96.50;;;;;;4317441;33;43723;-75
2022/06/04 11:46:41;;;;;;;;;;;19.70;96.60;;;;;;4330067;33;42792;-74
2022/06/04 11:49:27;;;;;;;;;;;19.70;96.60;;;;;;4303636;33;42973;-75
2022/06/04 11:51:54;;;;;;;;;;;19.80;96.50;;;;;;4331641;33;20001;-75
2022/06/04 11:54:22;;;;;;;;;;;19.80;96.50;;;;;;4330131;33;42864;-75
2022/06/04 11:57:08;;;;;;;;;;;19.80;96.50;;;;;;4330374;33;44834;-74
2022/06/04 11:59:40;;;;;;;;;;;19.80;96.50;;;;;;4330244;33;42789;-75
2022/06/04 12:02:27;;;;;;;;;;;19.80;96.70;;;;;;4332447;33;43823;-74
2022/06/04 12:05:12;;;;;;;;;;;19.90;96.60;;;;;;4333304;33;45671;-76
2022/06/04 12:07:42;;;;;;;;;;;19.90;96.60;;;;;;4319979;33;43908;-74
2022/06/04 12:10:18;;;;;;;;;;;20.00;96.70;;;;;;4319465;33;43914;-76
2022/06/04 12:13:03;;;;;;;;;;;20.10;96.90;;;;;;4333335;33;43250;-75
2022/06/04 12:15:36;;;;;;;;;;;20.20;96.80;;;;;;4333062;33;43854;-76
2022/06/04 12:18:26;;;;;;;;;;;20.20;96.60;;;;;;4332601;33;43820;-74
2022/06/04 12:26:38;;;;;;;;;;;20.30;96.70;;;;;;4332957;33;43200;-75
2022/06/04 12:29:41;;;;;;;;;;;20.40;96.50;;;;;;4332851;33;43253;-74
2022/06/04 12:32:24;;;;;;;;;;;20.40;96.50;;;;;;4258248;33;42650;-75
2022/06/04 12:35:12;;;;;;;;;;;20.50;96.40;;;;;;4325190;33;43679;-75
2022/06/04 12:37:46;;;;;;;;;;;20.60;96.40;;;;;;4320153;33;45772;-76
2022/06/04 12:40:27;;;;;;;;;;;20.60;96.30;;;;;;4319548;33;44636;-76
2022/06/04 12:43:18;;;;;;;;;;;20.60;96.30;;;;;;4332796;33;43049;-75
2022/06/04 12:45:47;;;;;;;;;;;20.70;96.40;;;;;;4332618;33;43357;-75
2022/06/04 12:48:24;;;;;;;;;;;20.80;95.90;;;;;;4332272;33;43509;-74
2022/06/04 12:51:02;;;;;;;;;;;20.90;95.90;;;;;;4332599;33;44291;-74
2022/06/04 12:53:31;;;;;;;;;;;20.90;96.00;;;;;;4332065;33;43774;-75
2022/06/04 12:56:04;;;;;;;;;;;20.90;95.90;;;;;;4319154;33;43387;-76
2022/06/04 12:58:37;;;;;;;;;;;21.00;95.90;;;;;;4318176;33;44487;-74
2022/06/04 13:01:16;;;;;;;;;;;21.00;95.90;;;;;;4332748;33;42992;-74
2022/06/04 13:03:47;;;;;;;;;;;21.10;96.00;;;;;;4316167;33;42135;-77
2022/06/04 13:06:17;;;;;;;;;;;21.10;96.00;;;;;;4317716;33;45808;-74
2022/06/04 13:09:05;;;;;;;;;;;21.10;95.60;;;;;;4317650;33;44878;-75
2022/06/04 13:11:43;;;;;;;;;;;21.20;95.80;;;;;;4306764;33;43335;-75
2022/06/04 13:14:23;;;;;;;;;;;21.20;95.50;;;;;;4317013;33;42564;-74
2022/06/04 13:16:56;;;;;;;;;;;21.30;95.70;;;;;;4316487;33;44273;-75
2022/06/04 13:19:44;;;;;;;;;;;21.30;95.70;;;;;;4317538;33;42517;-76
2022/06/04 13:22:26;;;;;;;;;;;21.40;95.50;;;;;;4316385;33;44628;-75
2022/06/04 13:25:01;;;;;;;;;;;21.50;95.30;;;;;;4318562;33;20002;-77
2022/06/04 13:27:41;;;;;;;;;;;21.50;95.10;;;;;;4317470;33;43231;-74
2022/06/04 13:30:20;;;;;;;;;;;21.50;95.30;;;;;;4316044;33;43618;-74
2022/06/04 13:32:48;;;;;;;;;;;21.50;95.30;;;;;;4316329;33;44236;-76
2022/06/04 13:35:20;;;;;;;;;;;21.60;95.40;;;;;;4316273;33;44413;-75
2022/06/04 13:37:49;;;;;;;;;;;21.60;95.40;;;;;;4316119;33;44141;-74
2022/06/04 13:40:29;;;;;;;;;;;21.60;95.50;;;;;;4317156;33;45897;-74
2022/06/04 13:43:01;;;;;;;;;;;21.70;95.40;;;;;;4317379;33;44895;-74
2022/06/04 13:45:30;;;;;;;;;;;21.70;95.20;;;;;;4317056;33;43585;-74
2022/06/04 13:48:00;;;;;;;;;;;21.70;95.00;;;;;;4316930;33;42609;-75
2022/06/04 13:50:31;;;;;;;;;;;21.70;94.70;;;;;;4316759;33;42903;-76
2022/06/04 13:53:03;;;;;;;;;;;21.80;94.70;;;;;;4315499;33;43677;-75
2022/06/04 13:55:50;;;;;;;;;;;21.80;94.40;;;;;;4317620;33;20009;-76
2022/06/04 13:58:26;;;;;;;;;;;21.90;94.40;;;;;;4317035;33;44206;-75
2022/06/04 14:01:00;;;;;;;;;;;21.90;94.50;;;;;;4315483;33;42334;-74
2022/06/04 14:03:37;;;;;;;;;;;22.00;94.30;;;;;;4315316;33;42417;-76
2022/06/04 14:06:04;;;;;;;;;;;22.00;94.30;;;;;;4317065;33;43474;-75
2022/06/04 14:08:47;;;;;;;;;;;22.10;94.50;;;;;;4315376;33;44127;-74
2022/06/04 14:11:33;;;;;;;;;;;22.10;94.30;;;;;;4316864;33;43702;-74
2022/06/04 14:14:18;;;;;;;;;;;22.10;94.10;;;;;;4316726;33;43169;-76
2022/06/04 14:16:45;;;;;;;;;;;22.10;94.20;;;;;;4316431;33;42604;-75
2022/06/04 14:19:27;;;;;;;;;;;22.20;93.90;;;;;;4315362;33;42914;-75
2022/06/04 14:22:12;;;;;;;;;;;22.20;93.70;;;;;;4316765;33;44191;-75
2022/06/04 14:24:48;;;;;;;;;;;22.30;93.20;;;;;;4315190;33;45565;-75
2022/06/04 14:27:30;;;;;;;;;;;22.40;93.30;;;;;;4316226;33;19997;-75
2022/06/04 14:30:07;;;;;;;;;;;22.40;93.20;;;;;;4316656;33;43194;-75
2022/06/04 14:32:51;;;;;;;;;;;22.40;93.10;;;;;;4316496;33;43588;-75
2022/06/04 14:35:32;;;;;;;;;;;22.40;93.30;;;;;;4315050;33;42590;-76
2022/06/04 14:38:01;;;;;;;;;;;22.40;93.30;;;;;;4316517;33;44259;-76
2022/06/04 14:40:36;;;;;;;;;;;22.50;93.30;;;;;;4316036;33;42972;-76
2022/06/04 14:43:03;;;;;;;;;;;22.50;93.30;;;;;;4316335;33;43215;-75
2022/06/04 14:45:38;;;;;;;;;;;22.50;93.30;;;;;;4315873;33;44359;-76
2022/06/04 14:48:08;;;;;;;;;;;22.50;93.20;;;;;;4316274;33;43027;-77
2022/06/04 14:50:35;;;;;;;;;;;22.50;93.20;;;;;;4314688;33;45740;-77
2022/06/04 14:53:03;;;;;;;;;;;22.60;93.10;;;;;;4314755;33;43581;-76
2022/06/04 14:55:59;;;;;;;;;;;22.60;93.10;;;;;;4316233;33;42851;-76
2022/06/04 14:58:45;;;;;;;;;;;22.60;93.00;;;;;;4315737;33;20750;-76
2022/06/04 15:01:20;;;;;;;;;;;22.60;92.90;;;;;;4316246;33;42888;-76
2022/06/04 15:03:55;;;;;;;;;;;22.70;92.90;;;;;;4315536;33;44952;-75
2022/06/04 15:06:33;;;;;;;;;;;22.70;92.80;;;;;;4316344;33;43603;-75
2022/06/04 15:09:19;;;;;;;;;;;22.70;92.80;;;;;;4315798;33;42905;-76
2022/06/04 15:12:01;;;;;;;;;;;22.70;92.70;;;;;;4315016;33;44883;-76
2022/06/04 15:14:44;;;;;;;;;;;22.80;92.50;;;;;;4314908;33;43124;-75